sensor_id;sensor_type;location;lat;lon;timestamp;temperature;humidity
34829;DHT22;21042;47.620;12.188;2022-11-13T00:02:34;3.30;99.90
34829;DHT22;21042;47.620;12.188;2022-11-13T00:05:19;3.30;99.90
34829;DHT22;21042;47.620;12.188;2022-11-13T00:08:04;3.30;99.90
34829;DHT22;21042;47.620;12.188;2022-11-13T00:10:50;3.20;99.90
34829;DHT22;21042;47.620;12.188;2022-11-13T00:13:35;3.20;99.90
34829;DHT22;21042;47.620;12.188;2022-11-13T00:16:21;3.30;99.90
34829;DHT22;21042;47.620;12.188;2022-11-13T00:19:06;3.30;99.90
34829;DHT22;21042;47.620;12.188;2022-11-13T00:21:51;3.30;99.90
34829;DHT22;21042;47.620;12.188;2022-11-13T00:24:38;3.20;99.90
34829;DHT22;21042;47.620;12.188;2022-11-13T00:27:24;3.20;99.90
34829;DHT22;21042;47.620;12.188;2022-11-13T00:30:09;3.20;99.90
34829;DHT22;21042;47.620;12.188;2022-11-13T00:33:03;3.30;99.90
34829;DHT22;21042;47.620;12.188;2022-11-13T00:35:48;3.30;99.90
34829;DHT22;21042;47.620;12.188;2022-11-13T00:38:34;3.30;99.90
34829;DHT22;21042;47.620;12.188;2022-11-13T00:41:19;3.30;99.90
34829;DHT22;21042;47.620;12.188;2022-11-13T00:44:05;3.30;99.90
34829;DHT22;21042;47.620;12.188;2022-11-13T00:46:50;3.30;99.90
34829;DHT22;21042;47.620;12.188;2022-11-13T00:49:36;3.30;99.90
34829;DHT22;21042;47.620;12.188;2022-11-13T00:52:21;3.30;99.90
34829;DHT22;21042;47.620;12.188;2022-11-13T00:55:07;3.20;99.90
34829;DHT22;21042;47.620;12.188;2022-11-13T00:57:52;3.10;99.90
34829;DHT22;21042;47.620;12.188;2022-11-13T01:00:39;3.10;99.90
34829;DHT22;21042;47.620;12.188;2022-11-13T01:03:25;3.10;99.90
34829;DHT22;21042;47.620;12.188;2022-11-13T01:08:58;2.90;99.90
34829;DHT22;21042;47.620;12.188;2022-11-13T01:11:44;2.90;99.90
34829;DHT22;21042;47.620;12.188;2022-11-13T01:14:29;2.90;99.90
34829;DHT22;21042;47.620;12.188;2022-11-13T01:17:14;2.90;99.90
34829;DHT22;21042;47.620;12.188;2022-11-13T01:20:00;3.00;99.90
34829;DHT22;21042;47.620;12.188;2022-11-13T01:22:45;3.00;99.90
34829;DHT22;21042;47.620;12.188;2022-11-13T01:25:31;2.80;99.90
34829;DHT22;21042;47.620;12.188;2022-11-13T01:28:16;2.70;99.90
34829;DHT22;21042;47.620;12.188;2022-11-13T01:31:07;2.70;99.90
34829;DHT22;21042;47.620;12.188;2022-11-13T01:33:52;2.80;99.90
34829;DHT22;21042;47.620;12.188;2022-11-13T01:36:37;2.80;99.90
34829;DHT22;21042;47.620;12.188;2022-11-13T01:39:23;2.70;99.90
34829;DHT22;21042;47.620;12.188;2022-11-13T01:42:08;2.80;99.90
34829;DHT22;21042;47.620;12.188;2022-11-13T01:44:56;2.80;99.90
34829;DHT22;21042;47.620;12.188;2022-11-13T01:47:43;2.60;99.90
34829;DHT22;21042;47.620;12.188;2022-11-13T01:50:28;2.70;99.90
34829;DHT22;21042;47.620;12.188;2022-11-13T01:53:13;2.70;99.90
34829;DHT22;21042;47.620;12.188;2022-11-13T01:55:59;2.70;99.90
34829;DHT22;21042;47.620;12.188;2022-11-13T01:58:50;2.70;99.90
34829;DHT22;21042;47.620;12.188;2022-11-13T02:01:37;2.70;99.90
34829;DHT22;21042;47.620;12.188;2022-11-13T02:04:23;2.80;99.90
34829;DHT22;21042;47.620;12.188;2022-11-13T02:07:12;2.70;99.90
34829;DHT22;21042;47.620;12.188;2022-11-13T02:09:58;2.70;99.90
34829;DHT22;21042;47.620;12.188;2022-11-13T02:12:50;2.80;99.90
34829;DHT22;21042;47.620;12.188;2022-11-13T02:15:35;2.80;99.90
34829;DHT22;21042;47.620;12.188;2022-11-13T02:18:21;2.80;99.90
34829;DHT22;21042;47.620;12.188;2022-11-13T02:21:28;2.80;99.90
34829;DHT22;21042;47.620;12.188;2022-11-13T02:24:23;2.80;99.90
34829;DHT22;21042;47.620;12.188;2022-11-13T02:27:26;2.80;99.90
34829;DHT22;21042;47.620;12.188;2022-11-13T02:30:31;2.80;99.90
34829;DHT22;21042;47.620;12.188;2022-11-13T02:33:25;2.80;99.90
34829;DHT22;21042;47.620;12.188;2022-11-13T02:36:11;2.80;99.90
34829;DHT22;21042;47.620;12.188;2022-11-13T02:39:00;2.90;99.90
34829;DHT22;21042;47.620;12.188;2022-11-13T02:41:46;3.10;99.90
34829;DHT22;21042;47.620;12.188;2022-11-13T02:44:32;3.20;99.90
34829;DHT22;21042;47.620;12.188;2022-11-13T02:47:17;3.10;99.90
34829;DHT22;21042;47.620;12.188;2022-11-13T02:50:03;3.10;99.90
34829;DHT22;21042;47.620;12.188;2022-11-13T02:52:49;3.10;99.90
34829;DHT22;21042;47.620;12.188;2022-11-13T02:55:35;3.10;99.90
34829;DHT22;21042;47.620;12.188;2022-11-13T02:58:20;3.00;99.90
34829;DHT22;21042;47.620;12.188;2022-11-13T03:01:05;3.10;99.90
34829;DHT22;21042;47.620;12.188;2022-11-13T03:03:51;3.00;99.90
34829;DHT22;21042;47.620;12.188;2022-11-13T03:06:43;3.00;99.90
34829;DHT22;21042;47.620;12.188;2022-11-13T03:09:29;3.00;99.90
34829;DHT22;21042;47.620;12.188;2022-11-13T03:12:14;3.00;99.90
34829;DHT22;21042;47.620;12.188;2022-11-13T03:15:00;3.10;99.90
34829;DHT22;21042;47.620;12.188;2022-11-13T03:17:46;3.00;99.90
34829;DHT22;21042;47.620;12.188;2022-11-13T03:20:32;3.00;99.90
34829;DHT22;21042;47.620;12.188;2022-11-13T03:23:17;3.10;99.90
34829;DHT22;21042;47.620;12.188;2022-11-13T03:26:05;3.10;99.90
34829;DHT22;21042;47.620;12.188;2022-11-13T03:28:50;2.80;99.90
34829;DHT22;21042;47.620;12.188;2022-11-13T03:31:36;2.60;99.90
34829;DHT22;21042;47.620;12.188;2022-11-13T03:34:21;2.40;99.90
34829;DHT22;21042;47.620;12.188;2022-11-13T03:37:07;2.30;99.90
34829;DHT22;21042;47.620;12.188;2022-11-13T03:39:52;2.30;99.90
34829;DHT22;21042;47.620;12.188;2022-11-13T03:42:38;2.30;99.90
34829;DHT22;21042;47.620;12.188;2022-11-13T03:45:23;2.50;99.90
34829;DHT22;21042;47.620;12.188;2022-11-13T03:48:08;2.40;99.90
34829;DHT22;21042;47.620;12.188;2022-11-13T03:50:54;2.40;99.90
34829;DHT22;21042;47.620;12.188;2022-11-13T03:53:39;2.40;99.90
34829;DHT22;21042;47.620;12.188;2022-11-13T03:56:25;2.40;99.90
34829;DHT22;21042;47.620;12.188;2022-11-13T03:59:10;2.50;99.90
34829;DHT22;21042;47.620;12.188;2022-11-13T04:01:55;2.50;99.90
34829;DHT22;21042;47.620;12.188;2022-11-13T04:04:41;2.60;99.90
34829;DHT22;21042;47.620;12.188;2022-11-13T04:07:26;2.70;99.90
34829;DHT22;21042;47.620;12.188;2022-11-13T04:10:12;2.80;99.90
34829;DHT22;21042;47.620;12.188;2022-11-13T04:12:58;2.80;99.90
34829;DHT22;21042;47.620;12.188;2022-11-13T04:15:43;2.90;99.90
34829;DHT22;21042;47.620;12.188;2022-11-13T04:18:29;2.90;99.90
34829;DHT22;21042;47.620;12.188;2022-11-13T04:21:14;3.00;99.90
34829;DHT22;21042;47.620;12.188;2022-11-13T04:24:00;2.90;99.90
34829;DHT22;21042;47.620;12.188;2022-11-13T04:26:45;2.90;99.90
34829;DHT22;21042;47.620;12.188;2022-11-13T04:29:30;2.90;99.90
34829;DHT22;21042;47.620;12.188;2022-11-13T04:32:16;2.80;99.90
34829;DHT22;21042;47.620;12.188;2022-11-13T04:35:01;2.90;99.90
34829;DHT22;21042;47.620;12.188;2022-11-13T04:37:46;2.80;99.90
34829;DHT22;21042;47.620;12.188;2022-11-13T04:40:32;2.80;99.90
34829;DHT22;21042;47.620;12.188;2022-11-13T04:43:17;2.80;99.90
34829;DHT22;21042;47.620;12.188;2022-11-13T04:46:03;2.80;99.90
34829;DHT22;21042;47.620;12.188;2022-11-13T04:48:48;2.80;99.90
34829;DHT22;21042;47.620;12.188;2022-11-13T04:51:34;2.80;99.90
34829;DHT22;21042;47.620;12.188;2022-11-13T04:54:19;2.80;99.90
34829;DHT22;21042;47.620;12.188;2022-11-13T04:57:12;2.80;99.90
34829;DHT22;21042;47.620;12.188;2022-11-13T04:59:58;2.80;99.90
34829;DHT22;21042;47.620;12.188;2022-11-13T05:02:43;2.70;99.90
34829;DHT22;21042;47.620;12.188;2022-11-13T05:05:29;2.50;99.90
34829;DHT22;21042;47.620;12.188;2022-11-13T05:08:14;2.30;99.90
34829;DHT22;21042;47.620;12.188;2022-11-13T05:11:00;2.30;99.90
34829;DHT22;21042;47.620;12.188;2022-11-13T05:13:46;2.40;99.90
34829;DHT22;21042;47.620;12.188;2022-11-13T05:16:34;2.40;99.90
34829;DHT22;21042;47.620;12.188;2022-11-13T05:19:20;2.50;99.90
34829;DHT22;21042;47.620;12.188;2022-11-13T05:22:07;2.60;99.90
34829;DHT22;21042;47.620;12.188;2022-11-13T05:24:52;2.60;99.90
34829;DHT22;21042;47.620;12.188;2022-11-13T05:27:37;2.60;99.90
34829;DHT22;21042;47.620;12.188;2022-11-13T05:30:23;2.60;99.90
34829;DHT22;21042;47.620;12.188;2022-11-13T05:33:09;2.60;99.90
34829;DHT22;21042;47.620;12.188;2022-11-13T05:35:54;2.50;99.90
34829;DHT22;21042;47.620;12.188;2022-11-13T05:38:40;2.50;99.90
34829;DHT22;21042;47.620;12.188;2022-11-13T05:41:26;2.50;99.90
34829;DHT22;21042;47.620;12.188;2022-11-13T05:44:11;2.60;99.90
34829;DHT22;21042;47.620;12.188;2022-11-13T05:46:57;2.70;99.90
34829;DHT22;21042;47.620;12.188;2022-11-13T05:49:42;2.70;99.90
34829;DHT22;21042;47.620;12.188;2022-11-13T05:52:28;2.80;99.90
34829;DHT22;21042;47.620;12.188;2022-11-13T05:55:13;2.80;99.90
34829;DHT22;21042;47.620;12.188;2022-11-13T05:57:59;2.80;99.90
34829;DHT22;21042;47.620;12.188;2022-11-13T06:00:44;2.70;99.90
34829;DHT22;21042;47.620;12.188;2022-11-13T06:03:29;2.70;99.90
34829;DHT22;21042;47.620;12.188;2022-11-13T06:06:17;2.60;99.90
34829;DHT22;21042;47.620;12.188;2022-11-13T06:09:05;2.60;99.90
34829;DHT22;21042;47.620;12.188;2022-11-13T06:11:50;2.60;99.90
34829;DHT22;21042;47.620;12.188;2022-11-13T06:14:36;2.50;99.90
34829;DHT22;21042;47.620;12.188;2022-11-13T06:17:21;2.50;99.90
34829;DHT22;21042;47.620;12.188;2022-11-13T06:20:07;2.40;99.90
34829;DHT22;21042;47.620;12.188;2022-11-13T06:22:53;2.60;99.90
34829;DHT22;21042;47.620;12.188;2022-11-13T06:25:38;2.60;99.90
34829;DHT22;21042;47.620;12.188;2022-11-13T06:28:23;2.60;99.90
34829;DHT22;21042;47.620;12.188;2022-11-13T06:31:11;2.60;99.90
34829;DHT22;21042;47.620;12.188;2022-11-13T06:33:57;2.60;99.90
34829;DHT22;21042;47.620;12.188;2022-11-13T06:36:44;2.60;99.90
34829;DHT22;21042;47.620;12.188;2022-11-13T06:39:29;2.60;99.90
34829;DHT22;21042;47.620;12.188;2022-11-13T06:42:15;2.60;99.90
34829;DHT22;21042;47.620;12.188;2022-11-13T06:45:00;2.60;99.90
34829;DHT22;21042;47.620;12.188;2022-11-13T06:47:45;2.60;99.90
34829;DHT22;21042;47.620;12.188;2022-11-13T06:50:31;2.60;99.90
34829;DHT22;21042;47.620;12.188;2022-11-13T06:53:17;2.70;99.90
34829;DHT22;21042;47.620;12.188;2022-11-13T06:56:04;2.70;99.90
34829;DHT22;21042;47.620;12.188;2022-11-13T06:58:50;2.70;99.90
34829;DHT22;21042;47.620;12.188;2022-11-13T07:01:36;2.70;99.90
34829;DHT22;21042;47.620;12.188;2022-11-13T07:04:21;2.60;99.90
34829;DHT22;21042;47.620;12.188;2022-11-13T07:07:07;2.60;99.90
34829;DHT22;21042;47.620;12.188;2022-11-13T07:09:52;2.60;99.90
34829;DHT22;21042;47.620;12.188;2022-11-13T07:12:38;2.50;99.90
34829;DHT22;21042;47.620;12.188;2022-11-13T07:15:23;2.50;99.90
34829;DHT22;21042;47.620;12.188;2022-11-13T07:18:09;2.50;99.90
34829;DHT22;21042;47.620;12.188;2022-11-13T07:20:54;2.50;99.90
34829;DHT22;21042;47.620;12.188;2022-11-13T07:23:39;2.50;99.90
34829;DHT22;21042;47.620;12.188;2022-11-13T07:26:27;2.50;99.90
34829;DHT22;21042;47.620;12.188;2022-11-13T07:29:12;2.50;99.90
34829;DHT22;21042;47.620;12.188;2022-11-13T07:31:58;2.50;99.90
34829;DHT22;21042;47.620;12.188;2022-11-13T07:34:43;2.50;99.90
34829;DHT22;21042;47.620;12.188;2022-11-13T07:37:29;2.60;99.90
34829;DHT22;21042;47.620;12.188;2022-11-13T07:40:14;2.60;99.90
34829;DHT22;21042;47.620;12.188;2022-11-13T07:43:01;2.60;99.90
34829;DHT22;21042;47.620;12.188;2022-11-13T07:45:46;2.70;99.90
34829;DHT22;21042;47.620;12.188;2022-11-13T07:48:38;2.70;99.90
34829;DHT22;21042;47.620;12.188;2022-11-13T07:51:23;2.70;99.90
34829;DHT22;21042;47.620;12.188;2022-11-13T07:54:09;2.80;99.90
34829;DHT22;21042;47.620;12.188;2022-11-13T07:56:54;3.00;99.90
34829;DHT22;21042;47.620;12.188;2022-11-13T07:59:39;3.10;99.90
34829;DHT22;21042;47.620;12.188;2022-11-13T08:02:25;3.30;99.90
34829;DHT22;21042;47.620;12.188;2022-11-13T08:05:11;3.40;99.90
34829;DHT22;21042;47.620;12.188;2022-11-13T08:07:56;3.50;99.90
34829;DHT22;21042;47.620;12.188;2022-11-13T08:10:42;3.60;99.90
34829;DHT22;21042;47.620;12.188;2022-11-13T08:13:27;3.80;99.90
34829;DHT22;21042;47.620;12.188;2022-11-13T08:16:12;3.90;99.90
34829;DHT22;21042;47.620;12.188;2022-11-13T08:18:58;4.00;99.90
34829;DHT22;21042;47.620;12.188;2022-11-13T08:21:43;4.00;99.90
34829;DHT22;21042;47.620;12.188;2022-11-13T08:24:28;4.10;99.90
34829;DHT22;21042;47.620;12.188;2022-11-13T08:27:14;4.20;99.90
34829;DHT22;21042;47.620;12.188;2022-11-13T08:29:59;4.40;99.90
34829;DHT22;21042;47.620;12.188;2022-11-13T08:32:46;4.60;99.90
34829;DHT22;21042;47.620;12.188;2022-11-13T08:35:32;4.70;99.90
34829;DHT22;21042;47.620;12.188;2022-11-13T08:38:17;4.80;99.90
34829;DHT22;21042;47.620;12.188;2022-11-13T08:41:04;5.00;99.90
34829;DHT22;21042;47.620;12.188;2022-11-13T08:43:54;5.10;99.90
34829;DHT22;21042;47.620;12.188;2022-11-13T08:46:39;5.30;99.90
34829;DHT22;21042;47.620;12.188;2022-11-13T08:49:24;5.40;99.90
34829;DHT22;21042;47.620;12.188;2022-11-13T08:52:10;5.50;99.90
34829;DHT22;21042;47.620;12.188;2022-11-13T08:54:55;5.70;99.90
34829;DHT22;21042;47.620;12.188;2022-11-13T08:57:41;5.80;99.90
34829;DHT22;21042;47.620;12.188;2022-11-13T09:00:27;5.90;99.90
34829;DHT22;21042;47.620;12.188;2022-11-13T09:03:13;6.00;99.90
34829;DHT22;21042;47.620;12.188;2022-11-13T09:05:59;6.10;99.90
34829;DHT22;21042;47.620;12.188;2022-11-13T09:08:44;6.30;99.90
34829;DHT22;21042;47.620;12.188;2022-11-13T09:11:29;6.40;99.90
34829;DHT22;21042;47.620;12.188;2022-11-13T09:14:15;6.50;99.90
34829;DHT22;21042;47.620;12.188;2022-11-13T09:17:00;6.50;99.90
34829;DHT22;21042;47.620;12.188;2022-11-13T09:19:46;6.70;99.90
34829;DHT22;21042;47.620;12.188;2022-11-13T09:22:32;6.70;99.90
34829;DHT22;21042;47.620;12.188;2022-11-13T09:25:18;6.60;99.90
34829;DHT22;21042;47.620;12.188;2022-11-13T09:28:03;6.70;99.90
34829;DHT22;21042;47.620;12.188;2022-11-13T09:30:49;6.60;99.90
34829;DHT22;21042;47.620;12.188;2022-11-13T09:33:34;6.60;99.90
34829;DHT22;21042;47.620;12.188;2022-11-13T09:36:20;6.70;99.90
34829;DHT22;21042;47.620;12.188;2022-11-13T09:39:05;6.80;99.90
34829;DHT22;21042;47.620;12.188;2022-11-13T09:42:04;6.90;99.90
34829;DHT22;21042;47.620;12.188;2022-11-13T09:44:56;7.00;99.90
34829;DHT22;21042;47.620;12.188;2022-11-13T09:47:45;7.10;99.90
34829;DHT22;21042;47.620;12.188;2022-11-13T09:50:32;7.20;99.90
34829;DHT22;21042;47.620;12.188;2022-11-13T09:53:17;7.30;99.90
34829;DHT22;21042;47.620;12.188;2022-11-13T09:56:21;7.20;99.90
34829;DHT22;21042;47.620;12.188;2022-11-13T09:59:35;7.30;99.90
34829;DHT22;21042;47.620;12.188;2022-11-13T10:05:51;7.40;99.90
34829;DHT22;21042;47.620;12.188;2022-11-13T10:09:00;7.60;99.90
34829;DHT22;21042;47.620;12.188;2022-11-13T10:11:56;7.70;99.90
34829;DHT22;21042;47.620;12.188;2022-11-13T10:14:45;7.80;99.90
34829;DHT22;21042;47.620;12.188;2022-11-13T10:17:41;8.00;99.90
34829;DHT22;21042;47.620;12.188;2022-11-13T10:20:37;8.20;99.90
34829;DHT22;21042;47.620;12.188;2022-11-13T10:23:30;8.20;99.90
34829;DHT22;21042;47.620;12.188;2022-11-13T10:26:19;8.40;99.90
34829;DHT22;21042;47.620;12.188;2022-11-13T10:29:16;8.50;99.90
34829;DHT22;21042;47.620;12.188;2022-11-13T10:32:21;8.70;99.90
34829;DHT22;21042;47.620;12.188;2022-11-13T10:38:10;9.00;99.90
34829;DHT22;21042;47.620;12.188;2022-11-13T10:41:14;9.10;99.90
34829;DHT22;21042;47.620;12.188;2022-11-13T10:44:28;9.30;99.90
34829;DHT22;21042;47.620;12.188;2022-11-13T10:47:16;9.40;99.90
34829;DHT22;21042;47.620;12.188;2022-11-13T10:50:27;9.50;99.90
34829;DHT22;21042;47.620;12.188;2022-11-13T10:53:15;9.50;99.90
34829;DHT22;21042;47.620;12.188;2022-11-13T10:56:09;9.40;99.90
34829;DHT22;21042;47.620;12.188;2022-11-13T10:59:15;9.40;99.90
34829;DHT22;21042;47.620;12.188;2022-11-13T11:05:06;9.60;99.90
34829;DHT22;21042;47.620;12.188;2022-11-13T11:08:00;9.80;99.90
34829;DHT22;21042;47.620;12.188;2022-11-13T11:10:57;9.90;99.90
34829;DHT22;21042;47.620;12.188;2022-11-13T11:17:00;10.10;99.90
34829;DHT22;21042;47.620;12.188;2022-11-13T11:19:51;10.20;99.90
34829;DHT22;21042;47.620;12.188;2022-11-13T11:22:39;10.30;99.90
34829;DHT22;21042;47.620;12.188;2022-11-13T11:25:36;10.50;99.90
34829;DHT22;21042;47.620;12.188;2022-11-13T11:28:33;10.50;99.90
34829;DHT22;21042;47.620;12.188;2022-11-13T11:31:35;10.60;99.90
34829;DHT22;21042;47.620;12.188;2022-11-13T11:34:33;10.60;99.90
34829;DHT22;21042;47.620;12.188;2022-11-13T11:37:23;10.60;99.90
34829;DHT22;21042;47.620;12.188;2022-11-13T11:40:27;10.70;99.90
34829;DHT22;21042;47.620;12.188;2022-11-13T11:43:23;10.80;99.90
34829;DHT22;21042;47.620;12.188;2022-11-13T11:46:21;10.90;99.90
34829;DHT22;21042;47.620;12.188;2022-11-13T11:49:08;11.00;99.90
34829;DHT22;21042;47.620;12.188;2022-11-13T11:52:18;11.00;99.90
34829;DHT22;21042;47.620;12.188;2022-11-13T11:55:29;11.10;99.90
34829;DHT22;21042;47.620;12.188;2022-11-13T11:59:00;11.10;99.90
34829;DHT22;21042;47.620;12.188;2022-11-13T12:05:10;11.20;99.90
34829;DHT22;21042;47.620;12.188;2022-11-13T12:08:31;11.20;99.90
34829;DHT22;21042;47.620;12.188;2022-11-13T12:11:30;11.20;99.90
34829;DHT22;21042;47.620;12.188;2022-11-13T12:17:28;11.20;99.90
34829;DHT22;21042;47.620;12.188;2022-11-13T12:20:42;11.20;99.90
34829;DHT22;21042;47.620;12.188;2022-11-13T12:26:35;10.70;99.90
34829;DHT22;21042;47.620;12.188;2022-11-13T12:35:15;10.20;99.90
34829;DHT22;21042;47.620;12.188;2022-11-13T12:41:09;9.90;99.90
34829;DHT22;21042;47.620;12.188;2022-11-13T12:44:24;9.80;99.90
34829;DHT22;21042;47.620;12.188;2022-11-13T12:47:10;9.70;99.90
34829;DHT22;21042;47.620;12.188;2022-11-13T12:53:08;9.80;99.90
34829;DHT22;21042;47.620;12.188;2022-11-13T12:56:00;9.80;99.90
34829;DHT22;21042;47.620;12.188;2022-11-13T13:21:11;10.10;99.90
34829;DHT22;21042;47.620;12.188;2022-11-13T13:24:06;10.20;99.90
34829;DHT22;21042;47.620;12.188;2022-11-13T13:26:51;10.20;99.90
34829;DHT22;21042;47.620;12.188;2022-11-13T13:29:39;10.30;99.90
34829;DHT22;21042;47.620;12.188;2022-11-13T13:32:27;10.30;99.90
34829;DHT22;21042;47.620;12.188;2022-11-13T13:35:50;10.40;99.90
34829;DHT22;21042;47.620;12.188;2022-11-13T13:38:44;10.40;99.90
34829;DHT22;21042;47.620;12.188;2022-11-13T13:48:11;10.40;99.90
34829;DHT22;21042;47.620;12.188;2022-11-13T13:50:59;10.50;99.90
34829;DHT22;21042;47.620;12.188;2022-11-13T13:53:45;10.50;99.90
34829;DHT22;21042;47.620;12.188;2022-11-13T13:56:32;10.60;99.90
34829;DHT22;21042;47.620;12.188;2022-11-13T13:59:19;10.70;99.90
34829;DHT22;21042;47.620;12.188;2022-11-13T14:02:15;10.70;99.90
34829;DHT22;21042;47.620;12.188;2022-11-13T14:05:01;10.70;99.90
34829;DHT22;21042;47.620;12.188;2022-11-13T14:07:46;10.70;99.90
34829;DHT22;21042;47.620;12.188;2022-11-13T14:10:34;10.70;99.90
34829;DHT22;21042;47.620;12.188;2022-11-13T14:13:25;10.70;99.90
34829;DHT22;21042;47.620;12.188;2022-11-13T14:16:10;10.70;99.90
34829;DHT22;21042;47.620;12.188;2022-11-13T14:19:05;10.70;99.90
34829;DHT22;21042;47.620;12.188;2022-11-13T14:21:57;10.60;99.90
34829;DHT22;21042;47.620;12.188;2022-11-13T14:24:56;10.60;99.90
34829;DHT22;21042;47.620;12.188;2022-11-13T14:27:42;10.50;99.90
34829;DHT22;21042;47.620;12.188;2022-11-13T14:30:29;10.30;99.90
34829;DHT22;21042;47.620;12.188;2022-11-13T14:33:20;10.10;99.90
34829;DHT22;21042;47.620;12.188;2022-11-13T14:36:05;9.70;99.90
34829;DHT22;21042;47.620;12.188;2022-11-13T14:38:51;9.40;99.90
34829;DHT22;21042;47.620;12.188;2022-11-13T14:41:47;9.10;99.90
34829;DHT22;21042;47.620;12.188;2022-11-13T14:44:34;8.80;99.90
34829;DHT22;21042;47.620;12.188;2022-11-13T14:47:25;8.60;99.90
34829;DHT22;21042;47.620;12.188;2022-11-13T14:53:00;8.30;99.90
34829;DHT22;21042;47.620;12.188;2022-11-13T14:55:51;8.10;99.90
34829;DHT22;21042;47.620;12.188;2022-11-13T14:58:43;8.00;99.90
34829;DHT22;21042;47.620;12.188;2022-11-13T15:01:31;7.80;99.90
34829;DHT22;21042;47.620;12.188;2022-11-13T15:04:16;7.70;99.90
34829;DHT22;21042;47.620;12.188;2022-11-13T15:10:55;7.70;99.90
34829;DHT22;21042;47.620;12.188;2022-11-13T15:13:41;7.70;99.90
34829;DHT22;21042;47.620;12.188;2022-11-13T15:16:27;7.60;99.90
34829;DHT22;21042;47.620;12.188;2022-11-13T15:19:30;7.40;99.90
34829;DHT22;21042;47.620;12.188;2022-11-13T15:22:18;7.30;99.90
34829;DHT22;21042;47.620;12.188;2022-11-13T15:25:16;7.30;99.90
34829;DHT22;21042;47.620;12.188;2022-11-13T15:28:02;7.10;99.90
34829;DHT22;21042;47.620;12.188;2022-11-13T15:30:47;7.00;99.90
34829;DHT22;21042;47.620;12.188;2022-11-13T15:33:33;7.00;99.90
34829;DHT22;21042;47.620;12.188;2022-11-13T15:36:18;6.90;99.90
34829;DHT22;21042;47.620;12.188;2022-11-13T15:39:05;6.80;99.90
34829;DHT22;21042;47.620;12.188;2022-11-13T15:41:52;6.70;99.90
34829;DHT22;21042;47.620;12.188;2022-11-13T15:44:38;6.50;99.90
34829;DHT22;21042;47.620;12.188;2022-11-13T15:47:30;6.40;99.90
34829;DHT22;21042;47.620;12.188;2022-11-13T15:50:16;6.30;99.90
34829;DHT22;21042;47.620;12.188;2022-11-13T15:53:02;6.20;99.90
34829;DHT22;21042;47.620;12.188;2022-11-13T15:55:49;6.00;99.90
34829;DHT22;21042;47.620;12.188;2022-11-13T15:58:35;6.10;99.90
34829;DHT22;21042;47.620;12.188;2022-11-13T16:01:20;6.10;99.90
34829;DHT22;21042;47.620;12.188;2022-11-13T16:04:06;6.10;99.90
34829;DHT22;21042;47.620;12.188;2022-11-13T16:06:52;6.20;99.90
34829;DHT22;21042;47.620;12.188;2022-11-13T16:09:38;6.30;99.90
34829;DHT22;21042;47.620;12.188;2022-11-13T16:12:23;6.10;99.90
34829;DHT22;21042;47.620;12.188;2022-11-13T16:15:12;6.00;99.90
34829;DHT22;21042;47.620;12.188;2022-11-13T16:17:59;5.70;99.90
34829;DHT22;21042;47.620;12.188;2022-11-13T16:20:45;5.50;99.90
34829;DHT22;21042;47.620;12.188;2022-11-13T16:23:30;5.50;99.90
34829;DHT22;21042;47.620;12.188;2022-11-13T16:26:21;5.70;99.90
34829;DHT22;21042;47.620;12.188;2022-11-13T16:29:18;5.70;99.90
34829;DHT22;21042;47.620;12.188;2022-11-13T16:32:04;5.90;99.90
34829;DHT22;21042;47.620;12.188;2022-11-13T16:34:50;6.00;99.90
34829;DHT22;21042;47.620;12.188;2022-11-13T16:37:35;6.10;99.90
34829;DHT22;21042;47.620;12.188;2022-11-13T16:40:23;6.10;99.90
34829;DHT22;21042;47.620;12.188;2022-11-13T16:43:10;6.10;99.90
34829;DHT22;21042;47.620;12.188;2022-11-13T16:45:58;6.00;99.90
34829;DHT22;21042;47.620;12.188;2022-11-13T16:48:44;6.10;99.90
34829;DHT22;21042;47.620;12.188;2022-11-13T16:51:29;6.20;99.90
34829;DHT22;21042;47.620;12.188;2022-11-13T16:54:14;6.20;99.90
34829;DHT22;21042;47.620;12.188;2022-11-13T16:57:00;6.20;99.90
34829;DHT22;21042;47.620;12.188;2022-11-13T16:59:46;6.00;99.90
34829;DHT22;21042;47.620;12.188;2022-11-13T17:02:31;5.90;99.90
34829;DHT22;21042;47.620;12.188;2022-11-13T17:05:18;5.70;99.90
34829;DHT22;21042;47.620;12.188;2022-11-13T17:08:04;5.60;99.90
34829;DHT22;21042;47.620;12.188;2022-11-13T17:10:57;5.60;99.90
34829;DHT22;21042;47.620;12.188;2022-11-13T17:13:51;5.50;99.90
34829;DHT22;21042;47.620;12.188;2022-11-13T17:16:37;5.30;99.90
34829;DHT22;21042;47.620;12.188;2022-11-13T17:19:23;5.40;99.90
34829;DHT22;21042;47.620;12.188;2022-11-13T17:22:12;5.60;99.90
34829;DHT22;21042;47.620;12.188;2022-11-13T17:24:58;5.70;99.90
34829;DHT22;21042;47.620;12.188;2022-11-13T17:27:43;5.70;99.90
34829;DHT22;21042;47.620;12.188;2022-11-13T17:30:29;5.30;99.90
34829;DHT22;21042;47.620;12.188;2022-11-13T17:33:15;5.00;99.90
34829;DHT22;21042;47.620;12.188;2022-11-13T17:36:00;4.90;99.90
34829;DHT22;21042;47.620;12.188;2022-11-13T17:38:46;5.00;99.90
34829;DHT22;21042;47.620;12.188;2022-11-13T17:41:32;5.20;99.90
34829;DHT22;21042;47.620;12.188;2022-11-13T17:44:18;5.20;99.90
34829;DHT22;21042;47.620;12.188;2022-11-13T17:47:04;5.20;99.90
34829;DHT22;21042;47.620;12.188;2022-11-13T17:49:49;5.20;99.90
34829;DHT22;21042;47.620;12.188;2022-11-13T17:52:35;5.30;99.90
34829;DHT22;21042;47.620;12.188;2022-11-13T17:55:20;5.30;99.90
34829;DHT22;21042;47.620;12.188;2022-11-13T17:58:06;5.40;99.90
34829;DHT22;21042;47.620;12.188;2022-11-13T18:00:52;5.50;99.90
34829;DHT22;21042;47.620;12.188;2022-11-13T18:03:37;5.40;99.90
34829;DHT22;21042;47.620;12.188;2022-11-13T18:06:23;5.20;99.90
34829;DHT22;21042;47.620;12.188;2022-11-13T18:09:09;5.00;99.90
34829;DHT22;21042;47.620;12.188;2022-11-13T18:11:55;5.00;99.90
34829;DHT22;21042;47.620;12.188;2022-11-13T18:14:40;5.10;99.90
34829;DHT22;21042;47.620;12.188;2022-11-13T18:17:25;5.20;99.90
34829;DHT22;21042;47.620;12.188;2022-11-13T18:20:11;5.20;99.90
34829;DHT22;21042;47.620;12.188;2022-11-13T18:22:56;5.30;99.90
34829;DHT22;21042;47.620;12.188;2022-11-13T18:25:42;5.30;99.90
34829;DHT22;21042;47.620;12.188;2022-11-13T18:28:28;5.50;99.90
34829;DHT22;21042;47.620;12.188;2022-11-13T18:31:16;5.50;99.90
34829;DHT22;21042;47.620;12.188;2022-11-13T18:34:03;5.50;99.90
34829;DHT22;21042;47.620;12.188;2022-11-13T18:36:48;5.60;99.90
34829;DHT22;21042;47.620;12.188;2022-11-13T18:39:33;5.60;99.90
34829;DHT22;21042;47.620;12.188;2022-11-13T18:42:19;5.60;99.90
34829;DHT22;21042;47.620;12.188;2022-11-13T18:45:05;5.60;99.90
34829;DHT22;21042;47.620;12.188;2022-11-13T18:47:50;5.60;99.90
34829;DHT22;21042;47.620;12.188;2022-11-13T18:50:36;5.60;99.90
34829;DHT22;21042;47.620;12.188;2022-11-13T18:53:21;5.60;99.90
34829;DHT22;21042;47.620;12.188;2022-11-13T18:56:10;5.50;99.90